Time;durP1;ratioP1;P1;durP2;ratioP2;P2;SDS_P1;SDS_P2;PMS_P1;PMS_P2;Temp;Humidity;BMP_temperature;BMP_pressure;BME280_temperature;BME280_humidity;BME280_pressure;Samples;Min_cycle;Max_cycle;Signal;HPM_P1;HPM_P2
2022/09/17 00:02:12;;;;;;;;;;;;;;;17.00;45.44;99806.97;5078155;28;1163;-57
2022/09/17 00:04:38;;;;;;;;;;;;;;;16.88;45.65;99808.25;5078789;28;1175;-57
2022/09/17 00:07:03;;;;;;;;;;;;;;;16.96;45.19;99808.69;5078483;28;1973;-57
2022/09/17 00:09:28;;;;;;;;;;;;;;;16.92;45.28;99809.28;5078246;28;874;-56
2022/09/17 00:11:54;;;;;;;;;;;;;;;16.94;45.24;99800.72;5078180;28;1170;-56
2022/09/17 00:14:19;;;;;;;;;;;;;;;16.84;45.14;99804.44;5078841;28;1140;-56
2022/09/17 00:16:45;;;;;;;;;;;;;;;16.81;45.17;99804.22;5078909;28;1135;-56
2022/09/17 00:19:14;;;;;;;;;;;;;;;16.82;45.13;99801.19;5077852;28;1198;-56
2022/09/17 00:21:40;;;;;;;;;;;;;;;16.89;44.98;99801.66;5078242;28;933;-56
2022/09/17 00:24:05;;;;;;;;;;;;;;;18.06;46.42;99798.97;5078018;28;1158;-56
2022/09/17 00:26:31;;;;;;;;;;;;;;;17.37;47.58;99795.06;5077770;28;1922;-56
2022/09/17 00:28:56;;;;;;;;;;;;;;;17.29;46.79;99787.50;5078307;28;1159;-56
2022/09/17 00:31:22;;;;;;;;;;;;;;;17.16;46.37;99793.81;5078428;28;1233;-57
2022/09/17 00:33:48;;;;;;;;;;;;;;;17.12;45.88;99788.09;5077196;28;853;-57
2022/09/17 00:36:13;;;;;;;;;;;;;;;17.04;46.00;99791.50;5078404;28;1147;-56
2022/09/17 00:38:39;;;;;;;;;;;;;;;16.96;45.82;99790.28;5078100;28;1099;-58
2022/09/17 00:41:04;;;;;;;;;;;;;;;16.97;45.61;99789.19;5077761;28;1270;-57
2022/09/17 00:43:34;;;;;;;;;;;;;;;16.96;45.32;99792.19;5077833;28;1072;-57
2022/09/17 00:45:59;;;;;;;;;;;;;;;17.07;45.99;99786.25;5077613;28;1990;-57
2022/09/17 00:48:25;;;;;;;;;;;;;;;17.45;46.83;99796.31;5059515;28;1156;-56
2022/09/17 00:50:50;;;;;;;;;;;;;;;17.24;46.91;99790.38;5077916;28;1194;-57
2022/09/17 00:53:16;;;;;;;;;;;;;;;17.15;46.07;99797.66;5059683;28;1139;-57
2022/09/17 00:55:50;;;;;;;;;;;;;;;17.10;46.03;99784.84;5059650;28;1190;-57
2022/09/17 00:58:16;;;;;;;;;;;;;;;17.00;45.74;99790.47;5062949;28;1212;-56
2022/09/17 01:00:41;;;;;;;;;;;;;;;17.00;45.81;99799.56;5077784;28;1119;-57
2022/09/17 01:03:06;;;;;;;;;;;;;;;16.96;45.69;99792.19;5077208;28;1203;-57
2022/09/17 01:05:41;;;;;;;;;;;;;;;16.92;45.46;99792.00;5063505;28;1950;-57
2022/09/17 01:08:10;;;;;;;;;;;;;;;16.94;45.19;99792.50;5077492;28;1143;-57
2022/09/17 01:10:54;;;;;;;;;;;;;;;16.92;45.16;99789.25;5058478;28;1203;-57
2022/09/17 01:13:23;;;;;;;;;;;;;;;16.85;45.33;99788.78;5077095;28;1222;-56
2022/09/17 01:15:50;;;;;;;;;;;;;;;16.95;44.92;99799.63;5076839;28;1119;-57
2022/09/17 01:18:21;;;;;;;;;;;;;;;16.85;45.12;99794.28;5076791;28;1201;-57
2022/09/17 01:20:47;;;;;;;;;;;;;;;16.90;45.02;99799.69;5059542;28;1128;-57
2022/09/17 01:23:33;;;;;;;;;;;;;;;16.85;45.18;99794.28;5077314;28;1127;-57
2022/09/17 01:26:13;;;;;;;;;;;;;;;17.39;46.65;99792.84;5058943;28;1978;-57
2022/09/17 01:28:57;;;;;;;;;;;;;;;17.06;46.98;99789.28;5077492;28;1158;-56
2022/09/17 01:31:23;;;;;;;;;;;;;;;17.08;46.31;99787.88;5064477;28;1120;-57
2022/09/17 01:34:07;;;;;;;;;;;;;;;17.03;45.90;99790.72;5076819;28;1183;-56
2022/09/17 01:36:32;;;;;;;;;;;;;;;17.03;45.66;99785.22;5046705;28;1125;-56
2022/09/17 01:39:13;;;;;;;;;;;;;;;17.74;46.87;99787.78;5076669;28;1218;-57
2022/09/17 01:41:58;;;;;;;;;;;;;;;17.28;47.13;99783.94;5064785;28;1394;-56
2022/09/17 01:44:30;;;;;;;;;;;;;;;17.17;46.75;99784.44;5058965;28;1230;-56
2022/09/17 01:47:12;;;;;;;;;;;;;;;17.16;46.15;99769.88;5061721;28;1969;-56
2022/09/17 01:49:38;;;;;;;;;;;;;;;17.12;46.14;99768.03;5058765;28;1230;-56
2022/09/17 01:52:03;;;;;;;;;;;;;;;17.19;45.36;99766.53;5076507;28;1171;-56
2022/09/17 01:54:55;;;;;;;;;;;;;;;16.94;45.94;99765.03;5058443;28;1164;-57
2022/09/17 01:57:56;;;;;;;;;;;;;;;17.01;45.60;99772.91;5059086;28;1565;-56
2022/09/17 02:00:22;;;;;;;;;;;;;;;16.92;45.48;99759.84;4975685;28;1317;-56
2022/09/17 02:02:59;;;;;;;;;;;;;;;16.92;45.39;99753.56;5049432;28;1112;-56
2022/09/17 02:05:33;;;;;;;;;;;;;;;17.34;46.06;99764.63;5058375;28;1905;-56
2022/09/17 02:08:02;;;;;;;;;;;;;;;17.41;46.99;99768.59;5058368;28;1143;-56
2022/09/17 02:10:29;;;;;;;;;;;;;;;17.24;46.70;99760.13;5058216;28;1187;-56
2022/09/17 02:12:59;;;;;;;;;;;;;;;17.13;46.19;99767.75;5076618;28;1227;-56
2022/09/17 02:15:34;;;;;;;;;;;;;;;17.05;45.79;99765.69;5076458;28;1127;-56
2022/09/17 02:18:22;;;;;;;;;;;;;;;17.03;45.67;99762.44;5058522;28;1156;-56
2022/09/17 02:20:49;;;;;;;;;;;;;;;17.00;45.38;99760.28;5058435;28;1178;-56
2022/09/17 02:23:15;;;;;;;;;;;;;;;16.92;45.23;99759.84;5075521;28;899;-56
2022/09/17 02:25:43;;;;;;;;;;;;;;;17.79;46.28;99740.94;5058151;28;1910;-56
2022/09/17 02:28:24;;;;;;;;;;;;;;;17.30;46.82;99749.88;5058224;28;1167;-57
2022/09/17 02:30:50;;;;;;;;;;;;;;;17.15;46.36;99748.22;5058077;28;1207;-57
2022/09/17 02:33:15;;;;;;;;;;;;;;;17.09;46.10;99750.25;5075784;28;1139;-56
2022/09/17 02:35:43;;;;;;;;;;;;;;;17.03;45.85;99745.97;5075751;28;1135;-57
2022/09/17 02:38:08;;;;;;;;;;;;;;;17.83;46.60;99754.88;5057961;28;1268;-56
2022/09/17 02:40:49;;;;;;;;;;;;;;;17.33;47.13;99752.81;5076094;28;1223;-56
2022/09/17 02:43:18;;;;;;;;;;;;;;;17.18;46.72;99745.69;5063027;28;1148;-57
2022/09/17 02:45:47;;;;;;;;;;;;;;;17.22;45.89;99751.38;5075479;28;1981;-57
2022/09/17 02:48:19;;;;;;;;;;;;;;;17.13;45.65;99737.53;5043696;28;1218;-57
2022/09/17 02:50:47;;;;;;;;;;;;;;;17.09;45.59;99740.06;5075732;28;1167;-57
2022/09/17 02:53:25;;;;;;;;;;;;;;;16.93;45.70;99738.72;5075518;28;1147;-57
2022/09/17 02:56:09;;;;;;;;;;;;;;;17.03;45.35;99730.28;5075647;28;1163;-56
2022/09/17 02:59:04;;;;;;;;;;;;;;;17.01;44.96;99738.03;5075291;28;1215;-56
2022/09/17 03:01:34;;;;;;;;;;;;;;;16.91;45.25;99733.53;4984337;28;1271;-57
2022/09/17 03:04:00;;;;;;;;;;;;;;;16.95;44.72;99739.22;5057598;28;1121;-57
2022/09/17 03:06:25;;;;;;;;;;;;;;;16.90;45.18;99731.91;5057685;28;1969;-57
2022/09/17 03:08:50;;;;;;;;;;;;;;;16.87;44.82;99726.16;5075083;28;1187;-57
2022/09/17 03:11:16;;;;;;;;;;;;;;;17.21;45.59;99722.28;5075633;28;1000;-57
2022/09/17 03:13:42;;;;;;;;;;;;;;;17.25;46.95;99720.53;5075799;28;1155;-57
2022/09/17 03:16:07;;;;;;;;;;;;;;;17.14;46.36;99719.94;5075559;28;1210;-59
2022/09/17 03:18:33;;;;;;;;;;;;;;;17.10;45.96;99710.66;5075385;28;1201;-56
2022/09/17 03:20:58;;;;;;;;;;;;;;;17.02;45.67;99709.44;5075718;28;1178;-58
2022/09/17 03:23:24;;;;;;;;;;;;;;;17.89;46.22;99719.81;5075180;28;889;-58
2022/09/17 03:25:50;;;;;;;;;;;;;;;17.35;46.84;99708.53;5075360;28;1906;-60
2022/09/17 03:28:16;;;;;;;;;;;;;;;17.19;46.38;99714.31;5075485;28;1159;-59
2022/09/17 03:30:42;;;;;;;;;;;;;;;17.17;45.89;99707.53;5075178;28;1143;-59
2022/09/17 03:33:08;;;;;;;;;;;;;;;17.04;45.90;99715.44;5075799;28;1163;-59
2022/09/17 03:35:33;;;;;;;;;;;;;;;17.94;46.60;99719.75;5078764;28;852;-59
2022/09/17 03:37:59;;;;;;;;;;;;;;;17.36;46.91;99727.50;5078876;28;1124;-59
2022/09/17 03:40:24;;;;;;;;;;;;;;;17.22;46.56;99726.66;5078701;28;1163;-60
2022/09/17 03:42:50;;;;;;;;;;;;;;;17.14;46.09;99724.59;5079283;28;1226;-54
2022/09/17 03:45:15;;;;;;;;;;;;;;;17.17;45.79;99724.00;5078529;28;1977;-58
2022/09/17 03:47:41;;;;;;;;;;;;;;;17.10;45.54;99724.41;5078508;28;874;-59
2022/09/17 03:50:06;;;;;;;;;;;;;;;17.05;45.42;99717.06;5078835;28;1163;-56
2022/09/17 03:52:32;;;;;;;;;;;;;;;17.02;45.42;99717.66;5075306;28;1165;-57
2022/09/17 03:54:57;;;;;;;;;;;;;;;17.01;45.27;99718.81;5064506;28;1207;-54
2022/09/17 03:57:22;;;;;;;;;;;;;;;16.98;44.93;99715.84;5070593;28;1116;-56
2022/09/17 03:59:48;;;;;;;;;;;;;;;17.01;44.77;99727.03;5070963;28;867;-56
2022/09/17 04:02:13;;;;;;;;;;;;;;;16.92;44.92;99729.66;5079005;28;1246;-56
2022/09/17 04:04:39;;;;;;;;;;;;;;;16.92;45.00;99723.34;5077373;28;1061;-53
2022/09/17 04:07:04;;;;;;;;;;;;;;;16.84;45.27;99716.56;5078462;28;1913;-54
2022/09/17 04:09:30;;;;;;;;;;;;;;;16.87;45.18;99715.16;5072267;28;1208;-56
2022/09/17 04:11:55;;;;;;;;;;;;;;;16.91;44.86;99716.22;5077183;28;954;-57
2022/09/17 04:14:21;;;;;;;;;;;;;;;16.88;44.79;99705.81;5065614;28;1124;-58
2022/09/17 04:16:46;;;;;;;;;;;;;;;16.81;45.08;99703.44;5077813;28;1123;-58
2022/09/17 04:19:11;;;;;;;;;;;;;;;16.84;44.71;99700.09;5086238;28;974;-59
2022/09/17 04:21:37;;;;;;;;;;;;;;;16.75;44.71;99689.00;5065310;28;1190;-59
2022/09/17 04:24:02;;;;;;;;;;;;;;;17.85;45.55;99694.06;5070292;28;898;-58
2022/09/17 04:26:28;;;;;;;;;;;;;;;17.24;46.44;99694.22;5078462;28;1913;-58
2022/09/17 04:28:53;;;;;;;;;;;;;;;17.02;46.50;99695.69;5078182;28;1203;-57
2022/09/17 04:31:21;;;;;;;;;;;;;;;16.93;46.25;99703.81;5077835;28;1001;-58
2022/09/17 04:33:46;;;;;;;;;;;;;;;16.95;45.84;99702.72;5078399;28;1163;-58
2022/09/17 04:36:12;;;;;;;;;;;;;;;17.01;45.23;99707.81;5071598;28;922;-58
2022/09/17 04:38:37;;;;;;;;;;;;;;;16.89;45.33;99712.97;5077814;28;1265;-59
2022/09/17 04:41:05;;;;;;;;;;;;;;;16.91;45.21;99702.50;5077632;28;1124;-58
2022/09/17 04:43:30;;;;;;;;;;;;;;;16.85;45.25;99695.44;5077686;28;1475;-59
2022/09/17 04:45:56;;;;;;;;;;;;;;;18.00;46.20;99702.00;5077193;28;1971;-60
2022/09/17 04:48:21;;;;;;;;;;;;;;;17.36;47.06;99699.19;5077396;28;950;-58
2022/09/17 04:50:46;;;;;;;;;;;;;;;17.23;46.65;99684.31;5072473;28;1504;-58
2022/09/17 04:53:12;;;;;;;;;;;;;;;17.14;45.99;99677.91;5065190;28;1032;-59
2022/09/17 04:55:37;;;;;;;;;;;;;;;16.98;46.03;99689.19;5078633;28;1160;-58
2022/09/17 04:58:03;;;;;;;;;;;;;;;17.07;45.50;99681.06;5077634;28;1163;-58
2022/09/17 05:00:28;;;;;;;;;;;;;;;17.07;45.53;99659.09;5063785;28;1128;-59
2022/09/17 05:02:54;;;;;;;;;;;;;;;16.94;45.55;99660.69;5077743;28;1104;-59
2022/09/17 05:05:19;;;;;;;;;;;;;;;16.94;45.40;99649.72;5078096;28;1906;-57
2022/09/17 05:07:45;;;;;;;;;;;;;;;16.98;45.30;99645.25;5077728;28;977;-58
2022/09/17 05:10:12;;;;;;;;;;;;;;;16.94;45.37;99649.72;5076195;28;1254;-58
2022/09/17 05:12:37;;;;;;;;;;;;;;;16.90;45.23;99651.44;5061457;28;891;-58
2022/09/17 05:15:03;;;;;;;;;;;;;;;16.85;45.25;99646.03;5076491;28;1152;-58
2022/09/17 05:17:28;;;;;;;;;;;;;;;16.91;45.02;99642.09;5078008;28;1131;-57
2022/09/17 05:19:54;;;;;;;;;;;;;;;16.89;45.12;99647.06;5077848;28;1156;-58
2022/09/17 05:22:19;;;;;;;;;;;;;;;16.87;45.25;99654.75;5077533;28;1112;-57
2022/09/17 05:24:45;;;;;;;;;;;;;;;16.91;44.90;99653.06;5062658;28;891;-54
2022/09/17 05:27:10;;;;;;;;;;;;;;;17.75;47.22;99657.44;5077197;28;1914;-60
2022/09/17 05:29:36;;;;;;;;;;;;;;;17.27;48.01;99660.63;5074896;28;1180;-59
2022/09/17 05:32:02;;;;;;;;;;;;;;;17.19;47.12;99653.09;5067661;28;1302;-57
2022/09/17 05:34:27;;;;;;;;;;;;;;;17.19;46.32;99655.84;5074759;28;1147;-59
2022/09/17 05:36:53;;;;;;;;;;;;;;;17.07;46.45;99651.66;5076426;28;861;-58
2022/09/17 05:39:21;;;;;;;;;;;;;;;17.05;45.98;99659.38;5077228;28;1186;-59
2022/09/17 05:41:47;;;;;;;;;;;;;;;18.36;44.42;99643.38;5076950;28;1202;-59
2022/09/17 05:44:12;;;;;;;;;;;;;;;17.79;46.15;99647.44;5077135;28;1151;-57
2022/09/17 05:46:38;;;;;;;;;;;;;;;17.54;47.25;99650.72;5077196;28;1913;-56
2022/09/17 05:49:03;;;;;;;;;;;;;;;17.40;47.94;99648.81;5065731;28;1077;-59
2022/09/17 05:51:29;;;;;;;;;;;;;;;17.32;48.53;99644.03;5076991;28;1127;-58
2022/09/17 05:53:55;;;;;;;;;;;;;;;17.28;48.69;99638.34;5077013;28;1159;-58
2022/09/17 05:56:20;;;;;;;;;;;;;;;17.15;49.24;99630.91;5072071;28;1191;-59
2022/09/17 05:58:46;;;;;;;;;;;;;;;17.13;49.51;99635.09;5070191;28;1195;-57
2022/09/17 06:01:14;;;;;;;;;;;;;;;17.09;50.05;99630.19;5071474;28;1051;-56
2022/09/17 06:03:40;;;;;;;;;;;;;;;17.05;50.19;99637.41;5067913;28;1167;-56
2022/09/17 06:06:06;;;;;;;;;;;;;;;16.99;50.58;99646.88;5076344;28;1972;-58
2022/09/17 06:08:34;;;;;;;;;;;;;;;16.98;50.55;99642.50;5076812;28;1123;-58
2022/09/17 06:11:02;;;;;;;;;;;;;;;16.94;51.00;99638.72;5074895;28;1167;-59
2022/09/17 06:13:28;;;;;;;;;;;;;;;16.87;51.17;99643.78;5071043;28;1162;-56
2022/09/17 06:15:53;;;;;;;;;;;;;;;16.85;51.49;99648.75;5076808;28;1217;-57
2022/09/17 06:18:19;;;;;;;;;;;;;;;16.85;51.83;99652.31;5068573;28;1252;-56
2022/09/17 06:20:57;;;;;;;;;;;;;;;16.78;51.85;99640.91;5066705;28;1248;-60
2022/09/17 06:23:23;;;;;;;;;;;;;;;16.80;52.11;99644.16;5066838;28;1275;-58
2022/09/17 06:25:55;;;;;;;;;;;;;;;16.73;52.38;99641.00;5065326;28;1984;-58
2022/09/17 06:28:21;;;;;;;;;;;;;;;16.73;52.51;99633.59;5065781;28;1163;-58
2022/09/17 06:30:47;;;;;;;;;;;;;;;16.69;52.70;99621.59;5069774;28;1303;-59
2022/09/17 06:33:12;;;;;;;;;;;;;;;16.69;52.71;99629.81;5064187;28;1163;-58
2022/09/17 06:35:38;;;;;;;;;;;;;;;16.66;53.13;99633.19;5071326;28;1001;-58
2022/09/17 06:38:03;;;;;;;;;;;;;;;16.63;53.19;99628.28;5066073;28;1207;-58
2022/09/17 06:40:29;;;;;;;;;;;;;;;16.66;53.28;99627.69;5071043;28;1156;-58
2022/09/17 06:42:58;;;;;;;;;;;;;;;16.62;53.30;99636.81;5076532;28;1155;-58
2022/09/17 06:45:24;;;;;;;;;;;;;;;16.64;53.30;99635.41;5076157;28;1968;-57
2022/09/17 06:47:49;;;;;;;;;;;;;;;16.60;53.54;99632.44;5075596;28;1147;-58
2022/09/17 06:50:15;;;;;;;;;;;;;;;16.58;53.91;99636.63;5071216;28;1175;-58
2022/09/17 06:52:46;;;;;;;;;;;;;;;16.66;54.27;99627.69;5065795;28;1206;-58
2022/09/17 06:55:12;;;;;;;;;;;;;;;16.58;54.49;99625.66;5069905;28;1072;-58
2022/09/17 06:57:37;;;;;;;;;;;;;;;16.57;54.30;99619.31;5071390;28;1211;-58
2022/09/17 07:00:03;;;;;;;;;;;;;;;16.54;54.69;99625.41;5063147;28;1210;-58
2022/09/17 07:02:29;;;;;;;;;;;;;;;16.58;54.31;99620.16;5070781;28;1236;-57
2022/09/17 07:04:54;;;;;;;;;;;;;;;16.53;54.61;99623.78;5072578;28;1068;-58
2022/09/17 07:07:20;;;;;;;;;;;;;;;16.58;54.35;99628.38;5073984;28;1909;-57
2022/09/17 07:09:45;;;;;;;;;;;;;;;16.55;54.46;99628.97;5066026;28;1252;-57
2022/09/17 07:12:10;;;;;;;;;;;;;;;16.52;54.70;99632.31;5064298;28;998;-58
2022/09/17 07:14:36;;;;;;;;;;;;;;;16.49;54.82;99628.25;5077850;28;1055;-57
2022/09/17 07:17:02;;;;;;;;;;;;;;;16.47;55.01;99635.16;5079859;28;1132;-57
2022/09/17 07:19:27;;;;;;;;;;;;;;;16.53;54.69;99631.22;5079885;28;1079;-57
2022/09/17 07:21:53;;;;;;;;;;;;;;;16.49;54.84;99624.69;5080065;28;1167;-56
2022/09/17 07:24:18;;;;;;;;;;;;;;;16.47;54.95;99627.75;5068431;28;1009;-59
2022/09/17 07:26:44;;;;;;;;;;;;;;;16.49;55.03;99635.66;5068200;28;1913;-58
2022/09/17 07:29:09;;;;;;;;;;;;;;;16.49;55.13;99641.16;5074309;28;1165;-58
2022/09/17 07:31:35;;;;;;;;;;;;;;;16.48;55.21;99639.53;5071958;28;997;-59
2022/09/17 07:34:00;;;;;;;;;;;;;;;16.48;54.94;99636.78;5059834;28;1018;-57
2022/09/17 07:36:26;;;;;;;;;;;;;;;16.46;54.97;99634.34;5071309;28;1076;-57
2022/09/17 07:38:51;;;;;;;;;;;;;;;16.48;55.12;99632.13;5077996;28;1159;-57
2022/09/17 07:41:17;;;;;;;;;;;;;;;16.42;55.45;99636.06;5079577;28;1302;-57
2022/09/17 07:43:42;;;;;;;;;;;;;;;16.47;55.18;99626.94;5063415;28;1298;-58
2022/09/17 07:46:12;;;;;;;;;;;;;;;16.48;55.24;99632.13;5079459;28;1973;-57
2022/09/17 07:48:37;;;;;;;;;;;;;;;16.48;55.21;99632.13;5075263;28;1120;-57
2022/09/17 07:51:02;;;;;;;;;;;;;;;16.53;55.38;99622.97;5075771;28;1232;-57
2022/09/17 07:53:28;;;;;;;;;;;;;;;16.48;55.54;99625.81;5065229;28;965;-58
2022/09/17 07:55:54;;;;;;;;;;;;;;;16.48;55.54;99625.81;5074886;28;1143;-57
2022/09/17 07:58:20;;;;;;;;;;;;;;;16.48;55.74;99623.06;5073796;28;1219;-57
2022/09/17 08:00:45;;;;;;;;;;;;;;;16.48;55.67;99614.81;5075025;28;934;-58
2022/09/17 08:03:11;;;;;;;;;;;;;;;16.43;55.84;99613.78;5070107;28;1175;-58
2022/09/17 08:05:37;;;;;;;;;;;;;;;16.41;55.64;99610.56;5074665;28;1914;-58
2022/09/17 08:08:02;;;;;;;;;;;;;;;16.44;55.59;99609.16;5073935;28;1188;-59
2022/09/17 08:10:28;;;;;;;;;;;;;;;16.45;55.88;99615.44;5077925;28;1207;-58
2022/09/17 08:12:54;;;;;;;;;;;;;;;16.45;55.96;99610.75;5069277;28;1167;-59
2022/09/17 08:15:19;;;;;;;;;;;;;;;16.48;55.97;99601.94;5074566;28;1203;-59
2022/09/17 08:17:45;;;;;;;;;;;;;;;16.46;56.08;99601.41;5068988;28;1390;-58
2022/09/17 08:20:11;;;;;;;;;;;;;;;16.50;55.93;99607.13;5073996;28;1159;-61
2022/09/17 08:22:36;;;;;;;;;;;;;;;16.46;55.79;99595.13;5074324;28;1246;-57
2022/09/17 08:25:03;;;;;;;;;;;;;;;16.42;55.92;99590.25;5068262;28;1595;-58
2022/09/17 08:27:31;;;;;;;;;;;;;;;16.47;56.00;99580.28;5071302;28;1975;-58
2022/09/17 08:29:57;;;;;;;;;;;;;;;16.50;55.87;99587.91;5075358;28;1151;-58
2022/09/17 08:32:22;;;;;;;;;;;;;;;16.49;56.18;99578.84;5068882;28;1314;-58
2022/09/17 08:34:48;;;;;;;;;;;;;;;16.48;56.37;99581.91;5069226;28;1320;-58
2022/09/17 08:37:13;;;;;;;;;;;;;;;16.52;56.28;99572.78;5064064;28;1385;-57
2022/09/17 08:39:38;;;;;;;;;;;;;;;16.52;56.23;99566.47;5077793;28;1258;-57
2022/09/17 08:42:07;;;;;;;;;;;;;;;16.51;56.49;99581.28;5074857;28;1230;-58
2022/09/17 08:44:32;;;;;;;;;;;;;;;16.53;56.26;99568.09;5056080;28;1317;-58
2022/09/17 08:46:58;;;;;;;;;;;;;;;16.53;56.47;99568.09;5077269;28;1901;-59
2022/09/17 08:49:24;;;;;;;;;;;;;;;16.51;56.38;99551.09;5074460;28;1411;-58
2022/09/17 08:51:53;;;;;;;;;;;;;;;16.51;56.40;99548.34;5077535;28;1313;-58
2022/09/17 08:54:24;;;;;;;;;;;;;;;16.50;56.57;99547.56;5077705;28;1239;-59
2022/09/17 08:57:03;;;;;;;;;;;;;;;16.50;56.48;99538.53;5075076;28;1239;-59
2022/09/17 08:59:32;;;;;;;;;;;;;;;16.50;56.66;99538.53;5046567;28;1198;-59
2022/09/17 09:01:59;;;;;;;;;;;;;;;16.51;56.65;99537.38;5075193;28;955;-59
2022/09/17 09:04:37;;;;;;;;;;;;;;;16.51;56.81;99529.97;5055421;28;1108;-59
2022/09/17 09:07:02;;;;;;;;;;;;;;;16.51;56.78;99538.22;5057822;28;1894;-58
2022/09/17 09:09:29;;;;;;;;;;;;;;;16.56;56.84;99529.06;5057717;28;1140;-59
2022/09/17 09:11:59;;;;;;;;;;;;;;;16.54;56.83;99520.34;5057615;28;1112;-59
2022/09/17 09:14:29;;;;;;;;;;;;;;;16.53;56.56;99519.50;5075632;28;985;-59
2022/09/17 09:16:55;;;;;;;;;;;;;;;16.54;56.93;99518.41;5050490;28;962;-59
2022/09/17 09:19:25;;;;;;;;;;;;;;;16.56;56.64;99520.84;5054498;28;1164;-60
2022/09/17 09:21:51;;;;;;;;;;;;;;;16.52;56.98;99515.16;5077732;28;1151;-60
2022/09/17 09:24:16;;;;;;;;;;;;;;;16.51;57.02;99510.78;5077117;28;1151;-60
2022/09/17 09:26:49;;;;;;;;;;;;;;;16.51;57.18;99509.94;5076970;28;1973;-60
2022/09/17 09:29:21;;;;;;;;;;;;;;;16.55;56.90;99500.00;5059796;28;1147;-62
2022/09/17 09:31:49;;;;;;;;;;;;;;;16.53;56.88;99497.56;5076660;28;1471;-62
2022/09/17 09:34:15;;;;;;;;;;;;;;;16.53;56.94;99507.72;5059494;28;1186;-61
2022/09/17 09:36:40;;;;;;;;;;;;;;;16.54;56.79;99514.84;5056282;28;1173;-58
2022/09/17 09:39:06;;;;;;;;;;;;;;;16.54;56.94;99517.59;5076322;28;1032;-58
2022/09/17 09:41:36;;;;;;;;;;;;;;;16.56;57.02;99520.84;5076528;28;885;-57
2022/09/17 09:44:08;;;;;;;;;;;;;;;16.52;56.94;99506.91;5076891;28;1167;-61
2022/09/17 09:46:37;;;;;;;;;;;;;;;16.53;56.92;99494.00;5058927;28;1906;-59
2022/09/17 09:49:21;;;;;;;;;;;;;;;16.52;57.14;99487.72;5054413;28;1120;-58
2022/09/17 09:51:58;;;;;;;;;;;;;;;16.54;56.94;99487.41;5073654;28;1147;-59
2022/09/17 09:54:30;;;;;;;;;;;;;;;16.53;57.08;99492.06;5058743;28;1522;-59
2022/09/17 09:57:04;;;;;;;;;;;;;;;16.52;56.94;99497.84;5076466;28;1143;-58
2022/09/17 09:59:30;;;;;;;;;;;;;;;16.54;57.12;99501.94;5059925;28;1183;-59
2022/09/17 10:01:56;;;;;;;;;;;;;;;16.54;57.08;99506.63;5073808;28;1195;-59
2022/09/17 10:04:25;;;;;;;;;;;;;;;16.53;57.19;99497.56;5065868;28;1139;-59
2022/09/17 10:06:51;;;;;;;;;;;;;;;16.52;57.12;99489.63;5076320;28;1897;-59
2022/09/17 10:09:20;;;;;;;;;;;;;;;16.49;57.39;99490.25;5058889;28;1223;-59
2022/09/17 10:11:58;;;;;;;;;;;;;;;16.47;57.32;99492.50;5075589;28;1141;-58
2022/09/17 10:14:25;;;;;;;;;;;;;;;16.55;56.99;99483.53;5064798;28;882;-59
2022/09/17 10:17:17;;;;;;;;;;;;;;;16.50;57.48;99478.16;5076328;28;1179;-61
2022/09/17 10:19:42;;;;;;;;;;;;;;;16.52;57.15;99470.41;5071790;28;1227;-58
2022/09/17 10:22:23;;;;;;;;;;;;;;;16.51;57.43;99449.56;5076317;28;1214;-59
2022/09/17 10:24:48;;;;;;;;;;;;;;;16.52;57.34;99462.19;5072406;28;1179;-58
2022/09/17 10:27:15;;;;;;;;;;;;;;;16.53;57.23;99469.31;5072277;28;1977;-58
2022/09/17 10:29:44;;;;;;;;;;;;;;;16.51;57.53;99463.28;5076767;28;1183;-58
2022/09/17 10:32:17;;;;;;;;;;;;;;;16.50;57.30;99464.44;5076154;28;1214;-60
2022/09/17 10:34:56;;;;;;;;;;;;;;;16.52;57.57;99453.94;5076711;28;1194;-58
2022/09/17 10:37:40;;;;;;;;;;;;;;;16.51;57.23;99442.19;5055389;28;1148;-59
2022/09/17 10:40:27;;;;;;;;;;;;;;;16.51;57.44;99433.94;5076206;28;1124;-59
2022/09/17 10:43:10;;;;;;;;;;;;;;;16.45;57.56;99429.66;5066746;28;1159;-58
2022/09/17 10:45:36;;;;;;;;;;;;;;;16.50;57.39;99420.53;5076179;28;1982;-58
2022/09/17 10:48:02;;;;;;;;;;;;;;;16.47;57.57;99421.94;5057980;28;1163;-59
2022/09/17 10:50:34;;;;;;;;;;;;;;;16.51;57.45;99422.13;5068909;28;869;-59
2022/09/17 10:53:01;;;;;;;;;;;;;;;16.51;57.53;99427.63;5075928;28;1147;-58
2022/09/17 10:55:33;;;;;;;;;;;;;;;16.50;57.36;99434.25;5076513;28;1186;-58
2022/09/17 10:58:02;;;;;;;;;;;;;;;16.51;57.36;99427.63;5057897;28;1207;-58
2022/09/17 11:00:29;;;;;;;;;;;;;;;16.43;57.69;99424.47;5076222;28;1178;-56
2022/09/17 11:03:07;;;;;;;;;;;;;;;16.48;57.34;99437.31;5053073;28;901;-58
2022/09/17 11:05:39;;;;;;;;;;;;;;;16.49;57.46;99432.63;5076238;28;1913;-57
2022/09/17 11:08:10;;;;;;;;;;;;;;;16.48;57.46;99433.72;5076110;28;1107;-58
2022/09/17 11:10:40;;;;;;;;;;;;;;;16.50;57.24;99432.31;5043339;28;1204;-59
2022/09/17 11:13:05;;;;;;;;;;;;;;;16.48;57.33;99436.47;5046774;28;1060;-58
2022/09/17 11:15:49;;;;;;;;;;;;;;;16.48;57.54;99430.97;5069369;28;929;-57
2022/09/17 11:18:28;;;;;;;;;;;;;;;16.47;57.34;99432.13;5075898;28;1096;-57
2022/09/17 11:21:17;;;;;;;;;;;;;;;16.50;57.14;99426.03;5057788;28;1218;-60
2022/09/17 11:23:52;;;;;;;;;;;;;;;16.45;57.34;99412.41;5050713;28;1077;-60
2022/09/17 11:26:24;;;;;;;;;;;;;;;16.43;57.36;99416.25;5070933;28;1972;-60
2022/09/17 11:28:56;;;;;;;;;;;;;;;16.45;57.22;99406.91;5058234;28;1151;-59
2022/09/17 11:31:22;;;;;;;;;;;;;;;16.49;57.33;99394.19;5057780;28;1246;-59
2022/09/17 11:33:50;;;;;;;;;;;;;;;16.46;57.44;99381.09;5075583;28;1084;-59
2022/09/17 11:36:24;;;;;;;;;;;;;;;16.42;57.56;99398.19;5066921;28;1111;-58
2022/09/17 11:38:50;;;;;;;;;;;;;;;16.47;57.15;99393.72;5054965;28;1227;-53
2022/09/17 11:41:20;;;;;;;;;;;;;;;16.45;57.45;99390.44;5065360;28;1262;-51
2022/09/17 11:43:46;;;;;;;;;;;;;;;16.43;57.59;99388.81;5057820;28;1187;-56
2022/09/17 11:46:19;;;;;;;;;;;;;;;16.48;57.32;99381.59;5074680;28;1962;-57
2022/09/17 11:48:47;;;;;;;;;;;;;;;16.42;57.47;99386.38;5069652;28;1244;-56
2022/09/17 11:51:27;;;;;;;;;;;;;;;16.49;57.20;99380.47;5049255;28;1407;-56
2022/09/17 11:54:05;;;;;;;;;;;;;;;16.47;57.27;99382.75;5066297;28;1072;-57
2022/09/17 11:56:46;;;;;;;;;;;;;;;16.48;57.17;99373.38;5073392;28;1267;-56
2022/09/17 11:59:12;;;;;;;;;;;;;;;16.47;57.18;99372.56;5059027;28;1227;-57
2022/09/17 12:01:39;;;;;;;;;;;;;;;16.42;57.60;99359.78;5072216;28;1186;-57
2022/09/17 12:04:23;;;;;;;;;;;;;;;16.47;57.32;99358.03;5042254;28;1210;-57
2022/09/17 12:06:51;;;;;;;;;;;;;;;16.48;57.55;99348.66;5070872;28;1913;-54
2022/09/17 12:09:21;;;;;;;;;;;;;;;16.46;57.26;99350.94;5045366;28;1231;-52
2022/09/17 12:11:47;;;;;;;;;;;;;;;16.45;57.32;99336.38;5066630;28;1226;-55
2022/09/17 12:14:14;;;;;;;;;;;;;;;16.43;57.42;99333.16;5065593;28;1250;-56
2022/09/17 12:16:43;;;;;;;;;;;;;;;16.47;57.26;99339.63;5054536;28;1290;-56
2022/09/17 12:19:21;;;;;;;;;;;;;;;16.41;57.45;99336.19;5049713;28;1255;-54
2022/09/17 12:21:48;;;;;;;;;;;;;;;16.46;57.27;99334.47;5071821;28;1393;-56
2022/09/17 12:24:13;;;;;;;;;;;;;;;16.47;57.17;99339.63;5072165;28;1537;-54
2022/09/17 12:26:38;;;;;;;;;;;;;;;16.49;57.38;99336.59;5074249;28;1905;-56
2022/09/17 12:29:07;;;;;;;;;;;;;;;16.50;57.25;99329.97;5063628;28;1325;-57
2022/09/17 12:31:35;;;;;;;;;;;;;;;16.46;57.49;99315.25;5072350;28;1195;-57
2022/09/17 12:34:05;;;;;;;;;;;;;;;16.50;57.47;99305.28;5078160;28;1195;-55
2022/09/17 12:36:39;;;;;;;;;;;;;;;16.45;57.72;99302.66;5055074;28;1318;-55
2022/09/17 12:39:34;;;;;;;;;;;;;;;16.46;57.85;99312.50;5055762;28;1227;-59
2022/09/17 12:42:09;;;;;;;;;;;;;;;16.45;57.76;99288.94;5058859;28;1869;-58
2022/09/17 12:44:47;;;;;;;;;;;;;;;16.51;57.47;99282.19;5074325;28;1297;-57
2022/09/17 12:47:31;;;;;;;;;;;;;;;16.49;57.59;99276.22;5071881;28;1902;-57
2022/09/17 12:50:02;;;;;;;;;;;;;;;16.47;57.84;99283.97;5077242;28;1206;-57
2022/09/17 12:52:48;;;;;;;;;;;;;;;16.46;57.57;99274.09;5071538;28;1511;-59
2022/09/17 12:55:20;;;;;;;;;;;;;;;16.46;57.70;99274.09;5054410;28;1068;-58
2022/09/17 12:58:09;;;;;;;;;;;;;;;16.49;57.87;99265.25;5068755;28;1164;-59
2022/09/17 13:00:40;;;;;;;;;;;;;;;16.42;57.72;99282.13;5028221;28;1260;-57
2022/09/17 13:03:19;;;;;;;;;;;;;;;16.41;57.93;99281.31;5074741;28;1274;-57
2022/09/17 13:05:50;;;;;;;;;;;;;;;16.42;57.74;99282.13;5057617;28;1901;-58
2022/09/17 13:08:18;;;;;;;;;;;;;;;16.45;57.62;99305.41;5057188;28;1227;-57